Forside
METAR-TAF:

METAR-TAF

Lufthavne :

Sparta, Wisconsin, USA

Breddekreds: 43-57-30N, længdekreds: 090-44-16W, højde: 255 m

Aktuelle vejr

Denne rapport blev lavet for 16 minutter siden, kl. 18:35 UTC
Vind 8 kt fra sydsydvest, varierende mellem syd og vestsydvest
Temperatur 5°C
Fugtighed 56%
Tryk 1018 hPa
Sigt: 16.1 km
skyfri

METAR: KCMY 221835Z AUTO 21008KT 180V240 10SM CLR 05/M03 A3005 RMK AO2 T00481035

Tid: 12:51 (18:51 UTC)


TAF: fraværende

Vejrobservationer og prognoser fra mere end 4000 lufthavne (METAR og TAF).

De gule og røde prikker repræsenterer de meteorologiske stationer.

Flyt musen over at se navnet på stationen.

Så klik over at se vejr observationer og prognoser.

At skifte det kort: Klik på de grønne knapper med et sort kors for at zoome ind; på den grønne knap med en bindestreg for at zoome ud; eller på de grønne pile for tilstødende kort.


METAR-TAF: